createdAt,value
2023-02-15T00:01:20.553Z,11.43
2023-02-15T00:03:51.133Z,11.00
2023-02-15T00:06:19.988Z,11.33
2023-02-15T00:08:50.258Z,11.13
2023-02-15T00:11:40.270Z,10.67
2023-02-15T00:14:10.950Z,9.97
2023-02-15T00:16:41.529Z,10.07
2023-02-15T00:19:10.667Z,10.67
2023-02-15T00:21:39.729Z,9.63
2023-02-15T00:24:12.499Z,9.80
2023-02-15T00:26:42.187Z,9.57
2023-02-15T00:29:11.800Z,9.90
2023-02-15T00:31:41.321Z,10.77
2023-02-15T00:34:15.168Z,10.50
2023-02-15T00:36:43.633Z,9.80
2023-02-15T00:39:17.011Z,9.03
2023-02-15T00:41:45.945Z,9.63
2023-02-15T00:44:14.558Z,10.37
2023-02-15T00:46:44.571Z,9.50
2023-02-15T00:49:13.017Z,10.43
2023-02-15T00:51:41.443Z,10.40
2023-02-15T00:54:10.214Z,10.00
2023-02-15T00:56:38.585Z,9.53
2023-02-15T00:59:06.779Z,10.20
2023-02-15T01:01:34.955Z,10.00
2023-02-15T01:04:04.611Z,9.90
2023-02-15T01:06:32.753Z,9.97
2023-02-15T01:09:03.396Z,11.10
2023-02-15T01:11:31.601Z,9.77
2023-02-15T01:14:00.212Z,9.63
2023-02-15T01:16:30.482Z,9.43
2023-02-15T01:18:59.082Z,9.37
2023-02-15T01:21:28.829Z,9.97
2023-02-15T01:24:00.117Z,8.83
2023-02-15T01:26:28.511Z,9.33
2023-02-15T01:29:00.100Z,10.13
2023-02-15T01:31:28.308Z,8.83
2023-02-15T01:33:56.537Z,9.60
2023-02-15T01:36:24.608Z,9.80
2023-02-15T01:38:55.120Z,8.77
2023-02-15T01:41:24.602Z,9.27
2023-02-15T01:43:55.257Z,10.07
2023-02-15T01:46:29.544Z,9.63
2023-02-15T01:49:05.110Z,9.57
2023-02-15T01:51:38.906Z,9.80
2023-02-15T01:54:13.003Z,9.23
2023-02-15T01:56:43.069Z,8.77
2023-02-15T01:59:16.905Z,10.07
2023-02-15T02:01:47.846Z,9.47
2023-02-15T02:04:26.530Z,10.40
2023-02-15T02:06:59.834Z,10.13
2023-02-15T02:09:32.168Z,9.50
2023-02-15T02:12:03.549Z,10.33
2023-02-15T02:14:32.143Z,9.97
2023-02-15T02:17:07.480Z,10.07
2023-02-15T02:20:04.354Z,9.03
2023-02-15T02:23:11.147Z,8.47
2023-02-15T02:26:17.099Z,9.20
2023-02-15T02:29:29.799Z,10.07
2023-02-15T02:32:38.811Z,9.37
2023-02-15T02:35:16.378Z,8.43
2023-02-15T02:37:53.493Z,9.27
2023-02-15T02:40:30.605Z,9.10
2023-02-15T02:43:04.028Z,9.77
2023-02-15T02:45:41.962Z,9.60
2023-02-15T02:48:16.856Z,9.30
2023-02-15T02:50:46.297Z,8.97
2023-02-15T02:53:14.446Z,9.47
2023-02-15T02:55:48.344Z,10.27
2023-02-15T02:58:22.386Z,8.33
2023-02-15T03:00:55.433Z,9.10
2023-02-15T03:03:28.893Z,9.73
2023-02-15T03:06:02.912Z,8.90
2023-02-15T03:08:39.966Z,9.83
2023-02-15T03:11:11.080Z,9.37
2023-02-15T03:13:39.767Z,10.30
2023-02-15T03:16:30.616Z,10.27
2023-02-15T03:19:03.600Z,9.53
2023-02-15T03:21:38.176Z,10.30
2023-02-15T03:24:15.405Z,9.40
2023-02-15T03:26:47.542Z,10.33
2023-02-15T03:29:17.360Z,8.40
2023-02-15T03:31:51.727Z,9.50
2023-02-15T03:34:22.331Z,9.33
2023-02-15T03:36:58.105Z,9.33
2023-02-15T03:39:33.346Z,8.77
2023-02-15T03:42:09.739Z,10.03
2023-02-15T03:44:51.093Z,9.57
2023-02-15T03:47:26.132Z,8.80
2023-02-15T03:49:58.620Z,8.70
2023-02-15T03:52:31.669Z,9.00
2023-02-15T03:55:00.114Z,8.57
2023-02-15T03:57:47.928Z,9.73
2023-02-15T04:00:37.952Z,9.63
2023-02-15T04:03:14.592Z,8.93
2023-02-15T04:05:43.889Z,8.70
2023-02-15T04:08:14.509Z,8.50
2023-02-15T04:10:54.387Z,9.50
2023-02-15T04:13:23.389Z,9.60
2023-02-15T04:16:04.883Z,9.07
2023-02-15T04:18:55.924Z,9.43
2023-02-15T04:21:42.675Z,8.33
2023-02-15T04:24:32.515Z,8.57
2023-02-15T04:27:01.604Z,9.10
2023-02-15T04:29:30.298Z,9.77
2023-02-15T04:32:02.008Z,9.83
2023-02-15T04:34:32.647Z,9.57
2023-02-15T04:37:00.768Z,9.33
2023-02-15T04:39:30.211Z,9.63
2023-02-15T04:42:00.619Z,10.00
2023-02-15T04:44:28.699Z,9.17
2023-02-15T04:46:56.842Z,9.90
2023-02-15T04:49:24.940Z,8.70
2023-02-15T04:51:55.064Z,9.13
2023-02-15T04:54:25.656Z,9.77
2023-02-15T04:56:55.130Z,9.63
2023-02-15T04:59:25.341Z,9.77
2023-02-15T05:01:53.413Z,10.10
2023-02-15T05:04:21.570Z,10.50
2023-02-15T05:06:52.416Z,9.43
2023-02-15T05:09:20.546Z,10.03
2023-02-15T05:11:48.677Z,9.10
2023-02-15T05:14:18.178Z,9.93
2023-02-15T05:16:46.352Z,9.73
2023-02-15T05:19:16.838Z,10.20
2023-02-15T05:21:44.992Z,9.23
2023-02-15T05:24:30.801Z,10.07
2023-02-15T05:27:16.169Z,9.20
2023-02-15T05:29:45.685Z,9.20
2023-02-15T05:32:15.455Z,8.90
2023-02-15T05:34:46.018Z,9.37
2023-02-15T05:37:14.216Z,9.77
2023-02-15T05:39:44.625Z,9.80
2023-02-15T05:42:15.021Z,9.27
2023-02-15T05:44:46.692Z,9.67
2023-02-15T05:47:14.845Z,9.67
2023-02-15T05:49:42.986Z,9.07
2023-02-15T05:52:13.494Z,9.43
2023-02-15T05:54:43.927Z,9.10
2023-02-15T05:57:12.027Z,9.00
2023-02-15T05:59:40.230Z,10.03
2023-02-15T06:02:09.768Z,9.00
2023-02-15T06:04:37.900Z,9.60
2023-02-15T06:07:06.014Z,10.17
2023-02-15T06:09:36.244Z,8.30
2023-02-15T06:12:04.480Z,9.50
2023-02-15T06:14:32.685Z,9.20
2023-02-15T06:17:00.849Z,12.27
2023-02-15T06:19:30.333Z,9.97
2023-02-15T06:21:58.449Z,9.03
2023-02-15T06:24:26.708Z,13.82
2023-02-15T06:26:57.335Z,10.43
2023-02-15T06:29:25.532Z,9.17
2023-02-15T06:31:54.765Z,9.83
2023-02-15T06:34:23.814Z,10.10
2023-02-15T06:36:53.753Z,9.63
2023-02-15T06:39:24.428Z,10.10
2023-02-15T06:41:55.517Z,9.33
2023-02-15T06:44:26.703Z,9.90
2023-02-15T06:46:56.850Z,9.30
2023-02-15T06:49:24.899Z,9.43
2023-02-15T06:51:54.504Z,9.60
2023-02-15T06:54:22.680Z,8.70
2023-02-15T06:56:50.777Z,8.90
2023-02-15T06:59:21.221Z,9.33
2023-02-15T07:01:50.035Z,9.07
2023-02-15T07:04:18.312Z,9.47
2023-02-15T07:06:46.826Z,9.17
2023-02-15T07:09:19.030Z,8.90
2023-02-15T07:12:07.154Z,10.43
2023-02-15T07:14:37.594Z,8.50
2023-02-15T07:17:11.689Z,9.27
2023-02-15T07:19:42.953Z,8.70
2023-02-15T07:22:13.588Z,8.90
2023-02-15T07:24:43.112Z,8.50
2023-02-15T07:27:13.505Z,8.50
2023-02-15T07:29:41.783Z,9.27
2023-02-15T07:32:09.897Z,8.87
2023-02-15T07:34:40.256Z,9.77
2023-02-15T07:37:08.441Z,9.07
2023-02-15T07:39:38.824Z,10.30
2023-02-15T07:42:08.315Z,9.50
2023-02-15T07:44:38.700Z,8.80
2023-02-15T07:47:07.038Z,8.93
2023-02-15T07:49:35.191Z,9.97
2023-02-15T07:52:10.449Z,9.30
2023-02-15T07:54:41.227Z,9.17
2023-02-15T07:57:13.223Z,9.33
2023-02-15T07:59:41.687Z,9.63
2023-02-15T08:02:13.299Z,9.77
2023-02-15T08:04:41.532Z,9.37
2023-02-15T08:07:11.698Z,9.77
2023-02-15T08:09:40.283Z,9.87
2023-02-15T08:12:08.648Z,9.93
2023-02-15T08:14:38.263Z,11.00
2023-02-15T08:17:06.401Z,10.77
2023-02-15T08:19:36.683Z,10.43
2023-02-15T08:22:08.984Z,10.53
2023-02-15T08:24:39.893Z,10.83
2023-02-15T08:27:10.041Z,10.73
2023-02-15T08:29:40.413Z,11.60
2023-02-15T08:32:11.038Z,9.53
2023-02-15T08:34:41.694Z,11.70
2023-02-15T08:37:10.396Z,11.10
2023-02-15T08:39:40.797Z,10.93
2023-02-15T08:42:10.968Z,12.13
2023-02-15T08:44:40.480Z,11.73
2023-02-15T08:47:08.584Z,12.63
2023-02-15T08:49:36.700Z,12.57
2023-02-15T08:52:04.933Z,12.33
2023-02-15T08:54:33.078Z,12.57
2023-02-15T08:57:01.543Z,12.53
2023-02-15T08:59:29.614Z,13.70
2023-02-15T09:01:59.331Z,12.60
2023-02-15T09:04:27.468Z,13.13
2023-02-15T09:06:58.260Z,13.67
2023-02-15T09:09:28.684Z,13.37
2023-02-15T09:11:59.718Z,13.37
2023-02-15T09:14:28.803Z,13.63
2023-02-15T09:17:00.524Z,14.20
2023-02-15T09:19:28.643Z,13.93
2023-02-15T09:21:59.533Z,13.70
2023-02-15T09:24:27.779Z,14.83
2023-02-15T09:26:55.864Z,14.23
2023-02-15T09:29:24.018Z,14.33
2023-02-15T09:31:54.588Z,15.13
2023-02-15T09:34:24.714Z,15.60
2023-02-15T09:36:55.175Z,14.70
2023-02-15T09:39:25.596Z,15.40
2023-02-15T09:42:22.295Z,14.70
2023-02-15T09:45:18.765Z,14.17
2023-02-15T09:48:10.565Z,15.73
2023-02-15T09:50:49.944Z,15.00
2023-02-15T09:53:36.389Z,16.73
2023-02-15T09:56:11.771Z,17.00
2023-02-15T09:58:52.082Z,15.97
2023-02-15T10:01:30.579Z,15.83
2023-02-15T10:04:19.880Z,16.00
2023-02-15T10:07:03.422Z,17.27
2023-02-15T10:09:42.642Z,16.03
2023-02-15T10:12:30.032Z,15.77
2023-02-15T10:15:20.605Z,17.17
2023-02-15T10:18:08.931Z,17.50
2023-02-15T10:20:47.638Z,17.50
2023-02-15T10:23:43.701Z,17.67
2023-02-15T10:26:18.628Z,17.27
2023-02-15T10:28:50.696Z,17.80
2023-02-15T10:31:27.349Z,16.93
2023-02-15T10:34:18.290Z,18.00
2023-02-15T10:37:06.280Z,17.37
2023-02-15T10:39:46.053Z,17.70
2023-02-15T10:42:23.332Z,17.43
2023-02-15T10:45:08.642Z,19.00
2023-02-15T10:48:01.513Z,18.27
2023-02-15T10:50:49.587Z,17.83
2023-02-15T10:53:38.610Z,18.60
2023-02-15T10:56:20.701Z,18.97
2023-02-15T10:59:05.267Z,17.77
2023-02-15T11:01:42.761Z,17.27
2023-02-15T11:04:45.965Z,17.53
2023-02-15T11:07:18.856Z,17.43
2023-02-15T11:09:51.329Z,18.47
2023-02-15T11:12:25.279Z,19.57
2023-02-15T11:15:00.369Z,18.00
2023-02-15T11:17:32.934Z,18.93
2023-02-15T11:20:10.050Z,18.90
2023-02-15T11:22:38.336Z,17.83
2023-02-15T11:25:20.339Z,18.90
2023-02-15T11:27:53.968Z,19.73
2023-02-15T11:30:24.942Z,18.23
2023-02-15T11:32:56.572Z,18.23
2023-02-15T11:35:29.951Z,19.23
2023-02-15T11:38:05.771Z,18.33
2023-02-15T11:40:42.813Z,19.03
2023-02-15T11:43:20.431Z,19.07
2023-02-15T11:45:48.738Z,18.10
2023-02-15T11:48:18.784Z,19.67
2023-02-15T11:50:49.269Z,19.47
2023-02-15T11:53:22.134Z,20.90
2023-02-15T11:55:52.908Z,18.73
2023-02-15T11:58:32.623Z,18.83
2023-02-15T12:01:11.083Z,19.00
2023-02-15T12:03:46.826Z,19.57
2023-02-15T12:06:25.644Z,20.53
2023-02-15T12:09:07.323Z,19.80
2023-02-15T12:11:38.623Z,18.57
2023-02-15T12:14:12.683Z,20.37
2023-02-15T12:16:47.192Z,20.43
2023-02-15T12:19:32.066Z,20.43
2023-02-15T12:22:03.009Z,19.87
2023-02-15T12:24:36.634Z,23.58
2023-02-15T12:27:07.269Z,20.50
2023-02-15T12:29:44.049Z,18.90
2023-02-15T12:32:19.176Z,19.93
2023-02-15T12:34:48.514Z,20.53
2023-02-15T12:37:23.171Z,20.37
2023-02-15T12:39:56.652Z,20.00
2023-02-15T12:42:25.438Z,20.37
2023-02-15T12:45:00.899Z,20.80
2023-02-15T12:47:30.330Z,20.73
2023-02-15T12:50:17.884Z,19.23
2023-02-15T12:52:49.920Z,20.83
2023-02-15T12:55:24.681Z,20.20
2023-02-15T12:58:10.915Z,20.67
2023-02-15T13:00:40.491Z,20.90
2023-02-15T13:03:19.496Z,21.13
2023-02-15T13:05:50.004Z,20.43
2023-02-15T13:08:21.456Z,20.83
2023-02-15T13:10:56.629Z,22.20
2023-02-15T13:13:27.561Z,21.80
2023-02-15T13:16:00.809Z,19.73
2023-02-15T13:18:35.657Z,20.37
2023-02-15T13:21:13.394Z,20.80
2023-02-15T13:23:46.518Z,20.43
2023-02-15T13:26:21.340Z,20.93
2023-02-15T13:28:52.825Z,20.03
2023-02-15T13:31:34.134Z,19.43
2023-02-15T13:34:05.653Z,20.10
2023-02-15T13:36:44.313Z,18.50
2023-02-15T13:39:25.129Z,20.43
2023-02-15T13:42:00.372Z,19.77
2023-02-15T13:44:49.452Z,20.10
2023-02-15T13:47:27.787Z,19.47
2023-02-15T13:50:15.523Z,19.93
2023-02-15T13:52:53.256Z,20.10
2023-02-15T13:55:40.052Z,20.23
2023-02-15T13:58:25.439Z,19.50
2023-02-15T14:01:04.770Z,19.77
2023-02-15T14:04:03.298Z,19.63
2023-02-15T14:07:03.291Z,18.87
2023-02-15T14:09:42.642Z,19.33
2023-02-15T14:12:30.952Z,18.43
2023-02-15T14:15:16.078Z,20.57
2023-02-15T14:17:57.647Z,19.40
2023-02-15T14:20:38.389Z,18.90
2023-02-15T14:23:14.805Z,19.40
2023-02-15T14:25:49.457Z,18.13
2023-02-15T14:28:22.916Z,19.03
2023-02-15T14:30:53.680Z,18.73
2023-02-15T14:33:36.017Z,18.93
2023-02-15T14:36:09.260Z,18.87
2023-02-15T14:38:57.706Z,18.20
2023-02-15T14:41:37.113Z,17.83
2023-02-15T14:44:14.508Z,18.97
2023-02-15T14:46:50.514Z,18.83
2023-02-15T14:49:23.401Z,18.60
2023-02-15T14:52:01.484Z,18.53
2023-02-15T14:54:58.175Z,17.90
2023-02-15T14:57:28.735Z,18.60
2023-02-15T14:59:59.352Z,18.73
2023-02-15T15:02:31.620Z,17.83
2023-02-15T15:05:08.232Z,18.47
2023-02-15T15:07:46.515Z,18.37
2023-02-15T15:10:42.228Z,18.30
2023-02-15T15:13:55.453Z,17.23
2023-02-15T15:16:33.039Z,18.63
2023-02-15T15:19:02.000Z,18.23
2023-02-15T15:21:56.028Z,17.63
2023-02-15T15:24:54.436Z,19.33
2023-02-15T15:27:47.134Z,16.90
2023-02-15T15:31:01.639Z,18.77
2023-02-15T15:34:08.902Z,17.60
2023-02-15T15:37:18.622Z,18.33
2023-02-15T15:40:23.368Z,18.30
2023-02-15T15:42:56.023Z,18.17
2023-02-15T15:45:38.701Z,17.10
2023-02-15T15:48:30.744Z,18.90
2023-02-15T15:51:05.746Z,19.73
2023-02-15T15:53:43.283Z,21.60
2023-02-15T15:56:16.318Z,19.33
2023-02-15T15:58:49.239Z,21.57
2023-02-15T16:01:17.614Z,21.73
2023-02-15T16:03:53.311Z,21.30
2023-02-15T16:06:36.816Z,20.00
2023-02-15T16:09:17.657Z,19.13
2023-02-15T16:11:49.135Z,18.00
2023-02-15T16:14:23.291Z,18.87
2023-02-15T16:16:55.846Z,18.23
2023-02-15T16:19:28.555Z,17.23
2023-02-15T16:22:02.254Z,17.73
2023-02-15T16:24:58.973Z,17.53
2023-02-15T16:27:37.924Z,16.97
2023-02-15T16:30:28.486Z,18.07
2023-02-15T16:33:07.502Z,17.97
2023-02-15T16:35:40.021Z,17.97
2023-02-15T16:38:11.734Z,17.27
2023-02-15T16:40:53.471Z,17.67
2023-02-15T16:43:27.976Z,16.83
2023-02-15T16:46:06.364Z,17.03
2023-02-15T16:48:37.302Z,16.80
2023-02-15T16:51:06.074Z,17.43
2023-02-15T16:53:34.333Z,16.97
2023-02-15T16:56:07.002Z,16.60
2023-02-15T16:58:41.963Z,16.43
2023-02-15T17:01:14.912Z,17.07
2023-02-15T17:03:44.118Z,15.50
2023-02-15T17:06:23.724Z,16.27
2023-02-15T17:09:06.862Z,16.27
2023-02-15T17:11:44.576Z,16.80
2023-02-15T17:14:23.710Z,17.53
2023-02-15T17:16:58.565Z,15.33
2023-02-15T17:19:35.518Z,17.13
2023-02-15T17:22:09.699Z,17.63
2023-02-15T17:24:41.205Z,17.27
2023-02-15T17:27:17.985Z,16.90
2023-02-15T17:29:54.653Z,18.23
2023-02-15T17:32:31.954Z,17.13
2023-02-15T17:35:18.816Z,17.27
2023-02-15T17:37:52.895Z,17.77
2023-02-15T17:40:29.576Z,17.87
2023-02-15T17:43:04.730Z,16.93
2023-02-15T17:45:49.289Z,16.30
2023-02-15T17:48:23.203Z,17.17
2023-02-15T17:51:02.519Z,17.67
2023-02-15T17:53:36.002Z,16.07
2023-02-15T17:56:11.205Z,16.73
2023-02-15T17:58:42.164Z,16.00
2023-02-15T18:01:40.550Z,17.50
2023-02-15T18:04:30.226Z,17.23
2023-02-15T18:07:18.600Z,17.83
2023-02-15T18:10:10.862Z,16.10
2023-02-15T18:12:46.824Z,17.37
2023-02-15T18:15:16.244Z,17.73
2023-02-15T18:17:48.700Z,18.47
2023-02-15T18:20:24.613Z,21.07
2023-02-15T18:22:57.069Z,21.23
2023-02-15T18:25:29.997Z,22.00
2023-02-15T18:27:59.445Z,21.90
2023-02-15T18:30:32.143Z,21.20
2023-02-15T18:33:20.595Z,21.83
2023-02-15T18:35:52.483Z,22.47
2023-02-15T18:38:48.803Z,21.10
2023-02-15T18:41:22.496Z,22.60
2023-02-15T18:43:54.264Z,22.53
2023-02-15T18:46:24.046Z,22.93
2023-02-15T18:48:59.746Z,23.03
2023-02-15T18:51:41.618Z,21.27
2023-02-15T18:54:22.617Z,21.03
2023-02-15T18:56:58.583Z,22.30
2023-02-15T18:59:30.392Z,21.10
2023-02-15T19:02:01.357Z,23.77
2023-02-15T19:04:32.312Z,19.27
2023-02-15T19:07:00.475Z,18.10
2023-02-15T19:09:29.496Z,18.07
2023-02-15T19:11:58.047Z,18.50
2023-02-15T19:14:28.777Z,22.67
2023-02-15T19:17:01.477Z,18.67
2023-02-15T19:19:31.125Z,18.27
2023-02-15T19:22:00.013Z,19.73
2023-02-15T19:24:37.980Z,20.93
2023-02-15T19:27:07.807Z,19.87
2023-02-15T19:29:35.978Z,20.17
2023-02-15T19:32:06.869Z,19.63
2023-02-15T19:34:36.387Z,20.67
2023-02-15T19:37:06.749Z,18.10
2023-02-15T19:39:39.539Z,18.83
2023-02-15T19:42:14.841Z,19.07
2023-02-15T19:44:43.748Z,18.07
2023-02-15T19:47:14.398Z,17.43
2023-02-15T19:49:43.929Z,18.07
2023-02-15T19:52:18.262Z,17.87
2023-02-15T19:54:47.093Z,20.03
2023-02-15T19:57:15.258Z,18.60
2023-02-15T19:59:45.859Z,18.73
2023-02-15T20:02:15.552Z,18.90
2023-02-15T20:04:47.464Z,18.87
2023-02-15T20:07:22.249Z,18.70
2023-02-15T20:09:50.378Z,17.30
2023-02-15T20:12:25.103Z,17.27
2023-02-15T20:14:54.066Z,16.17
2023-02-15T20:17:24.460Z,17.13
2023-02-15T20:19:56.404Z,16.73
2023-02-15T20:22:27.202Z,18.03
2023-02-15T20:24:57.102Z,17.57
2023-02-15T20:27:25.237Z,16.67
2023-02-15T20:29:56.862Z,15.93
2023-02-15T20:32:25.213Z,15.70
2023-02-15T20:34:53.447Z,16.70
2023-02-15T20:37:29.461Z,16.60
2023-02-15T20:39:57.768Z,16.90
2023-02-15T20:42:25.865Z,16.13
2023-02-15T20:44:56.066Z,18.33
2023-02-15T20:47:27.323Z,18.13
2023-02-15T20:49:59.185Z,16.70
2023-02-15T20:52:29.195Z,17.67
2023-02-15T20:54:57.428Z,17.77
2023-02-15T20:57:25.509Z,17.37
2023-02-15T20:59:53.607Z,17.53
2023-02-15T21:02:23.943Z,15.23
2023-02-15T21:04:52.533Z,15.93
2023-02-15T21:07:22.742Z,15.80
2023-02-15T21:09:54.343Z,16.33
2023-02-15T21:12:23.595Z,16.30
2023-02-15T21:14:53.992Z,15.03
2023-02-15T21:17:22.129Z,16.20
2023-02-15T21:19:50.245Z,15.03
2023-02-15T21:22:21.438Z,15.37
2023-02-15T21:24:54.803Z,15.43
2023-02-15T21:27:24.371Z,13.43
2023-02-15T21:29:52.582Z,14.97
2023-02-15T21:32:23.045Z,15.20
2023-02-15T21:34:51.259Z,15.73
2023-02-15T21:37:29.346Z,14.43
2023-02-15T21:39:57.702Z,14.70
2023-02-15T21:42:47.189Z,14.93
2023-02-15T21:45:34.140Z,15.33
2023-02-15T21:48:05.176Z,15.67
2023-02-15T21:50:50.893Z,14.33
2023-02-15T21:53:23.696Z,13.77
2023-02-15T21:55:56.800Z,13.87
2023-02-15T21:58:28.967Z,13.77
2023-02-15T22:00:58.719Z,12.90
2023-02-15T22:03:31.104Z,13.03
2023-02-15T22:05:59.220Z,12.90
2023-02-15T22:08:27.678Z,13.53
2023-02-15T22:10:58.606Z,13.43
2023-02-15T22:13:32.881Z,12.63
2023-02-15T22:16:01.289Z,12.73
2023-02-15T22:18:34.271Z,13.50
2023-02-15T22:21:04.314Z,13.87
2023-02-15T22:23:35.176Z,15.10
2023-02-15T22:26:05.328Z,13.97
2023-02-15T22:28:36.687Z,12.67
2023-02-15T22:31:05.896Z,12.97
2023-02-15T22:33:36.596Z,12.93
2023-02-15T22:36:05.098Z,13.40
2023-02-15T22:38:35.719Z,15.67
2023-02-15T22:41:06.227Z,14.37
2023-02-15T22:43:40.778Z,13.33
2023-02-15T22:46:12.912Z,14.20
2023-02-15T22:48:41.321Z,14.67
2023-02-15T22:51:14.002Z,15.00
2023-02-15T22:53:42.125Z,14.67
2023-02-15T22:56:16.615Z,14.77
2023-02-15T22:58:50.355Z,14.40
2023-02-15T23:01:27.456Z,13.73
2023-02-15T23:03:59.943Z,14.90
2023-02-15T23:06:30.150Z,14.07
2023-02-15T23:09:00.682Z,14.43
2023-02-15T23:11:31.833Z,14.00
2023-02-15T23:14:03.734Z,14.87
2023-02-15T23:16:34.540Z,14.40
2023-02-15T23:19:02.693Z,14.83
2023-02-15T23:21:34.239Z,15.43
2023-02-15T23:24:16.622Z,15.27
2023-02-15T23:26:44.743Z,17.03
2023-02-15T23:29:19.070Z,15.60
2023-02-15T23:31:49.511Z,15.97
2023-02-15T23:34:21.249Z,15.63
2023-02-15T23:36:49.776Z,16.13
2023-02-15T23:39:36.793Z,16.10
2023-02-15T23:42:09.985Z,15.27
2023-02-15T23:44:43.792Z,15.77
2023-02-15T23:47:21.120Z,16.30
2023-02-15T23:49:51.496Z,14.30
2023-02-15T23:52:19.594Z,16.73
2023-02-15T23:54:47.660Z,16.47
2023-02-15T23:57:15.763Z,15.73
2023-02-15T23:59:46.170Z,15.37
